Time;durP1;ratioP1;P1;durP2;ratioP2;P2;SDS_P1;SDS_P2;PMS_P1;PMS_P2;Temp;Humidity;BMP_temperature;BMP_pressure;BME280_temperature;BME280_humidity;BME280_pressure;Samples;Min_cycle;Max_cycle;Signal;HPM_P1;HPM_P2
2022/08/29 00:02:20;;;;;;;7.07;3.15;;;19.90;99.90;;;;;;6269915;28;20055;-78
2022/08/29 00:05:24;;;;;;;5.20;2.35;;;19.70;99.90;;;;;;6257289;28;20049;-79
2022/08/29 00:08:25;;;;;;;4.95;2.60;;;19.70;99.90;;;;;;6258247;28;20045;-78
2022/08/29 00:11:27;;;;;;;7.13;2.35;;;19.70;99.90;;;;;;6258336;28;20060;-79
2022/08/29 00:14:30;;;;;;;6.78;2.63;;;19.70;99.90;;;;;;6258887;28;20052;-79
2022/08/29 00:17:33;;;;;;;11.07;2.75;;;19.70;99.90;;;;;;6255440;28;20049;-80
2022/08/29 00:20:36;;;;;;;14.02;3.05;;;19.60;99.90;;;;;;6256413;28;20055;-79
2022/08/29 00:23:38;;;;;;;8.88;2.80;;;19.60;99.90;;;;;;6280195;28;20509;-78
2022/08/29 00:26:40;;;;;;;8.27;2.63;;;19.50;99.90;;;;;;6281185;28;20132;-79
2022/08/29 00:29:43;;;;;;;6.43;2.80;;;19.50;99.90;;;;;;6281539;28;20056;-77
2022/08/29 00:32:45;;;;;;;8.93;3.10;;;19.50;99.90;;;;;;6282023;28;20425;-78
2022/08/29 00:35:47;;;;;;;6.82;2.20;;;19.40;99.90;;;;;;6281578;28;20055;-79
2022/08/29 00:38:49;;;;;;;5.35;2.72;;;19.40;99.90;;;;;;6281677;28;20108;-79
2022/08/29 00:41:51;;;;;;;8.40;2.85;;;19.30;99.90;;;;;;6282105;28;20051;-80
2022/08/29 00:44:54;;;;;;;7.78;2.75;;;19.20;99.90;;;;;;6280211;28;20522;-77
2022/08/29 00:48:00;;;;;;;5.68;2.60;;;19.20;99.90;;;;;;6280186;28;20044;-79
2022/08/29 00:51:07;;;;;;;5.03;2.78;;;19.10;99.90;;;;;;6281654;28;20410;-79
2022/08/29 00:54:11;;;;;;;8.98;3.38;;;19.00;99.90;;;;;;6281472;28;20045;-77
2022/08/29 00:57:14;;;;;;;10.02;2.60;;;18.90;99.90;;;;;;6275624;28;20045;-78
2022/08/29 01:00:18;;;;;;;7.80;3.30;;;18.90;99.90;;;;;;6279801;28;20075;-79
2022/08/29 01:03:19;;;;;;;9.68;3.20;;;18.90;99.90;;;;;;6276466;28;20047;-77
2022/08/29 01:06:22;;;;;;;7.22;3.50;;;18.90;99.90;;;;;;6281015;28;20041;-79
2022/08/29 01:09:24;;;;;;;5.13;3.10;;;18.90;99.90;;;;;;6282720;28;20063;-77
2022/08/29 01:12:26;;;;;;;6.78;3.53;;;18.90;99.90;;;;;;6281075;28;20075;-78
2022/08/29 01:15:31;;;;;;;7.70;3.22;;;18.80;99.90;;;;;;6281858;28;20055;-79
2022/08/29 01:18:36;;;;;;;8.88;3.35;;;18.80;99.90;;;;;;6281489;28;20037;-79
2022/08/29 01:21:44;;;;;;;4.05;2.53;;;18.80;99.90;;;;;;6281013;28;20049;-78
2022/08/29 01:24:50;;;;;;;6.50;2.67;;;18.80;99.90;;;;;;6280272;28;20049;-79
2022/08/29 01:27:59;;;;;;;13.60;3.05;;;18.70;99.90;;;;;;6279479;28;20049;-79
2022/08/29 01:31:03;;;;;;;6.72;2.90;;;18.70;99.90;;;;;;6279335;28;20041;-78
2022/08/29 01:34:06;;;;;;;3.08;1.95;;;18.70;99.90;;;;;;6279901;28;20624;-78
2022/08/29 01:37:11;;;;;;;8.45;2.83;;;18.60;99.90;;;;;;6281200;28;20112;-79
2022/08/29 01:40:14;;;;;;;9.02;2.55;;;18.60;99.90;;;;;;6280391;28;20052;-78
2022/08/29 01:43:16;;;;;;;9.35;3.78;;;18.50;99.90;;;;;;6279578;28;20045;-77
2022/08/29 01:46:25;;;;;;;7.60;2.95;;;18.50;99.90;;;;;;6280124;28;20045;-78
2022/08/29 01:49:27;;;;;;;8.20;2.80;;;18.50;99.90;;;;;;6279704;28;20044;-78
2022/08/29 01:52:30;;;;;;;7.95;2.00;;;18.50;99.90;;;;;;6279746;28;20052;-79
2022/08/29 01:55:34;;;;;;;4.78;2.25;;;18.50;99.90;;;;;;6279544;28;20076;-79
2022/08/29 01:58:35;;;;;;;21.98;6.22;;;18.50;99.90;;;;;;6278241;28;20715;-78
2022/08/29 02:01:39;;;;;;;4.00;2.30;;;18.50;99.90;;;;;;6281212;28;20053;-78
2022/08/29 02:04:41;;;;;;;6.40;2.72;;;18.50;99.90;;;;;;6272281;28;20433;-78
2022/08/29 02:07:44;;;;;;;9.63;2.38;;;18.50;99.90;;;;;;6279388;28;20049;-78
2022/08/29 02:10:47;;;;;;;6.38;2.05;;;18.50;99.90;;;;;;6279333;28;20053;-78
2022/08/29 02:13:52;;;;;;;7.13;2.20;;;18.40;99.90;;;;;;6279597;28;20053;-79
2022/08/29 02:16:54;;;;;;;8.32;2.60;;;18.40;99.90;;;;;;6278398;28;20060;-77
2022/08/29 02:19:55;;;;;;;6.38;2.40;;;18.40;99.90;;;;;;6277645;28;20128;-77
2022/08/29 02:22:58;;;;;;;6.97;2.05;;;18.30;99.80;;;;;;6280824;28;20037;-78
2022/08/29 02:26:01;;;;;;;6.90;2.13;;;18.30;99.40;;;;;;6280976;28;20064;-79
2022/08/29 02:29:02;;;;;;;7.25;2.33;;;18.30;99.20;;;;;;6280735;28;20045;-79
2022/08/29 02:32:05;;;;;;;5.40;2.47;;;18.20;99.00;;;;;;6259449;28;20060;-79
2022/08/29 02:35:08;;;;;;;8.15;1.50;;;18.20;98.90;;;;;;6257829;28;20527;-78
2022/08/29 02:38:10;;;;;;;8.07;2.33;;;18.20;98.60;;;;;;6258996;28;20053;-78
2022/08/29 02:41:13;;;;;;;8.82;1.92;;;18.20;98.60;;;;;;6257600;28;20053;-78
2022/08/29 02:44:15;;;;;;;6.20;2.00;;;18.10;98.50;;;;;;6273740;28;20057;-79
2022/08/29 02:47:17;;;;;;;6.35;1.70;;;18.10;98.50;;;;;;6279508;28;20411;-78
2022/08/29 02:50:19;;;;;;;3.63;1.77;;;18.10;98.60;;;;;;6278358;28;20411;-79
2022/08/29 02:53:25;;;;;;;3.08;1.60;;;18.20;98.30;;;;;;6280789;28;20057;-78
2022/08/29 02:56:29;;;;;;;14.15;2.10;;;18.20;98.30;;;;;;6279561;28;20418;-78
2022/08/29 02:59:31;;;;;;;7.88;2.17;;;18.20;98.00;;;;;;6278563;28;20072;-79
2022/08/29 03:02:33;;;;;;;3.70;1.60;;;18.20;98.00;;;;;;6279192;28;20036;-79
2022/08/29 03:05:36;;;;;;;12.43;2.33;;;18.10;97.80;;;;;;6276110;28;20728;-78
2022/08/29 03:08:38;;;;;;;4.68;2.10;;;18.10;97.80;;;;;;6279962;28;20048;-79
2022/08/29 03:11:41;;;;;;;5.25;2.10;;;18.00;97.90;;;;;;6284053;28;20052;-79
2022/08/29 03:14:42;;;;;;;7.03;1.60;;;18.00;98.00;;;;;;6283490;28;20037;-79
2022/08/29 03:17:45;;;;;;;8.23;2.00;;;18.00;98.10;;;;;;6283507;28;20055;-79
2022/08/29 03:20:47;;;;;;;11.07;2.15;;;18.00;98.00;;;;;;6284155;28;20048;-78
2022/08/29 03:23:50;;;;;;;14.52;2.30;;;17.90;97.90;;;;;;6284851;28;20055;-79
2022/08/29 03:26:54;;;;;;;6.80;2.80;;;17.90;97.90;;;;;;6283686;28;20045;-79
2022/08/29 03:29:56;;;;;;;9.23;2.78;;;17.80;97.90;;;;;;6282735;28;20430;-79
2022/08/29 03:32:58;;;;;;;4.15;1.63;;;17.70;97.80;;;;;;6281032;28;20055;-79
2022/08/29 03:36:00;;;;;;;6.97;2.03;;;17.70;97.90;;;;;;6281589;28;20045;-77
2022/08/29 03:39:03;;;;;;;10.45;2.10;;;17.60;98.00;;;;;;6281496;28;20530;-79
2022/08/29 03:42:07;;;;;;;9.68;1.80;;;17.60;97.80;;;;;;6283571;28;20056;-78
2022/08/29 03:45:12;;;;;;;10.15;2.20;;;17.50;97.60;;;;;;6282095;28;20049;-78
2022/08/29 03:48:13;;;;;;;7.47;1.75;;;17.50;97.80;;;;;;6281770;28;20085;-79
2022/08/29 03:51:16;;;;;;;3.95;1.33;;;17.50;97.60;;;;;;6283882;28;20052;-79
2022/08/29 03:54:17;;;;;;;4.47;1.70;;;17.50;97.80;;;;;;6282255;28;20398;-79
2022/08/29 03:57:20;;;;;;;5.63;1.58;;;17.40;97.90;;;;;;6283707;28;20059;-79
2022/08/29 04:00:23;;;;;;;6.88;1.38;;;17.40;98.20;;;;;;6282794;28;20520;-78
2022/08/29 04:03:24;;;;;;;3.90;1.52;;;17.40;98.50;;;;;;6284403;28;20049;-80
2022/08/29 04:06:28;;;;;;;5.07;1.80;;;17.40;98.70;;;;;;6270217;28;20055;-80
2022/08/29 04:09:30;;;;;;;9.05;1.90;;;17.30;98.80;;;;;;6258555;28;20049;-78
2022/08/29 04:12:33;;;;;;;8.15;1.90;;;17.30;98.70;;;;;;6281048;28;20041;-78
2022/08/29 04:15:36;;;;;;;7.90;2.30;;;17.30;98.90;;;;;;6281072;28;20417;-80
2022/08/29 04:18:38;;;;;;;3.60;1.45;;;17.20;99.00;;;;;;6279923;28;20044;-79
2022/08/29 04:21:39;;;;;;;7.55;1.63;;;17.20;98.70;;;;;;6278559;28;20053;-81
2022/08/29 04:24:42;;;;;;;7.25;1.38;;;17.10;98.90;;;;;;6278834;28;20041;-79
2022/08/29 04:27:45;;;;;;;5.00;1.98;;;17.10;98.90;;;;;;6278954;28;20056;-80
2022/08/29 04:30:48;;;;;;;9.93;1.92;;;17.00;98.90;;;;;;6279527;28;20040;-79
2022/08/29 04:33:50;;;;;;;5.97;1.73;;;17.00;98.80;;;;;;6280143;28;20045;-79
2022/08/29 04:36:52;;;;;;;6.35;1.67;;;16.90;98.90;;;;;;6280972;28;20051;-79
2022/08/29 04:39:54;;;;;;;4.05;1.55;;;16.80;99.10;;;;;;6283172;28;20433;-79
2022/08/29 04:42:58;;;;;;;3.60;1.45;;;16.90;99.40;;;;;;6281780;28;20094;-80
2022/08/29 04:46:00;;;;;;;3.30;1.65;;;16.80;99.30;;;;;;6282695;28;20183;-80
2022/08/29 04:49:02;;;;;;;3.70;1.50;;;16.80;99.20;;;;;;6280585;28;20041;-80
2022/08/29 04:52:04;;;;;;;8.85;3.22;;;16.80;99.00;;;;;;6281007;28;20049;-80
2022/08/29 04:55:07;;;;;;;7.60;1.70;;;16.70;99.00;;;;;;6281153;28;20055;-79
2022/08/29 04:58:10;;;;;;;4.70;1.90;;;16.70;98.90;;;;;;6280274;28;20048;-79
2022/08/29 05:01:13;;;;;;;4.85;1.52;;;16.70;98.90;;;;;;6281111;28;20589;-80
2022/08/29 05:04:15;;;;;;;6.35;1.70;;;16.70;98.90;;;;;;6278968;28;20502;-80
2022/08/29 05:07:19;;;;;;;3.47;1.20;;;16.80;98.70;;;;;;6276170;28;20049;-81
2022/08/29 05:10:22;;;;;;;7.55;1.52;;;16.90;98.60;;;;;;6253530;28;20049;-80
2022/08/29 05:13:26;;;;;;;5.35;1.90;;;17.10;98.30;;;;;;6254167;28;20052;-80
2022/08/29 05:16:29;;;;;;;4.88;1.73;;;17.20;98.00;;;;;;6252788;28;20060;-78
2022/08/29 05:19:31;;;;;;;6.00;1.17;;;17.30;97.80;;;;;;6253383;28;20419;-78
2022/08/29 05:22:33;;;;;;;8.18;1.67;;;17.40;97.50;;;;;;6253425;28;20037;-80
2022/08/29 05:25:35;;;;;;;8.77;2.08;;;17.50;97.10;;;;;;6253095;28;20049;-79
2022/08/29 05:28:38;;;;;;;6.85;1.52;;;17.60;96.70;;;;;;6251939;28;20041;-80
2022/08/29 05:31:41;;;;;;;7.28;1.50;;;17.70;96.70;;;;;;6251150;28;20050;-80
2022/08/29 05:34:44;;;;;;;5.97;2.10;;;17.90;96.40;;;;;;6252374;28;20049;-79
2022/08/29 05:37:45;;;;;;;11.13;2.00;;;18.00;96.00;;;;;;6263061;28;20050;-77
2022/08/29 05:40:47;;;;;;;9.80;2.28;;;18.00;95.60;;;;;;6266680;28;20055;-80
2022/08/29 05:43:52;;;;;;;6.47;1.92;;;18.20;95.70;;;;;;6256156;28;20706;-80
2022/08/29 05:46:55;;;;;;;7.10;1.50;;;18.30;95.30;;;;;;6254938;28;20046;-81
2022/08/29 05:49:56;;;;;;;4.60;1.77;;;18.60;95.10;;;;;;6256100;28;20060;-80
2022/08/29 05:52:58;;;;;;;7.57;1.90;;;18.80;94.50;;;;;;6257428;28;20045;-81
2022/08/29 05:56:00;;;;;;;6.68;1.58;;;19.00;94.20;;;;;;6256511;28;20041;-78
2022/08/29 05:59:03;;;;;;;8.00;1.85;;;19.50;93.50;;;;;;6255104;28;20041;-78
2022/08/29 06:02:08;;;;;;;8.65;1.50;;;20.40;91.90;;;;;;6254653;28;20064;-80
2022/08/29 06:05:10;;;;;;;7.75;1.60;;;21.00;90.00;;;;;;6253757;28;20053;-79
2022/08/29 06:08:11;;;;;;;4.20;1.52;;;21.10;87.50;;;;;;6265207;28;20109;-80
2022/08/29 06:11:15;;;;;;;6.10;2.17;;;20.90;87.10;;;;;;6277339;28;20059;-80
2022/08/29 06:14:18;;;;;;;4.10;1.55;;;20.70;86.80;;;;;;6279373;28;20495;-78
2022/08/29 06:17:20;;;;;;;3.17;1.55;;;20.60;87.20;;;;;;6287861;28;20075;-78
2022/08/29 06:20:22;;;;;;;6.75;1.85;;;20.70;87.00;;;;;;6288668;28;20036;-80
2022/08/29 06:23:23;;;;;;;8.30;2.65;;;20.70;85.60;;;;;;6287341;28;20049;-79
2022/08/29 06:26:25;;;;;;;6.40;1.45;;;20.70;85.00;;;;;;6287262;28;20113;-78
2022/08/29 06:29:29;;;;;;;5.07;1.65;;;20.70;84.60;;;;;;6286738;28;20041;-80
2022/08/29 06:32:30;;;;;;;9.40;1.88;;;20.90;83.60;;;;;;6286468;28;20047;-79
2022/08/29 06:35:32;;;;;;;3.45;1.60;;;21.10;83.10;;;;;;6285110;28;20041;-80
2022/08/29 06:38:35;;;;;;;11.73;1.88;;;21.20;82.40;;;;;;6285709;28;20045;-78
2022/08/29 06:41:38;;;;;;;7.00;1.65;;;21.40;81.70;;;;;;6237114;28;20594;-79
2022/08/29 06:44:41;;;;;;;5.28;1.80;;;21.70;81.10;;;;;;6287989;28;20055;-78
2022/08/29 06:47:47;;;;;;;9.38;1.60;;;22.30;79.80;;;;;;6276801;28;20384;-77
2022/08/29 06:50:48;;;;;;;5.47;1.92;;;23.30;76.40;;;;;;6285482;28;20042;-78
2022/08/29 06:53:50;;;;;;;6.05;1.98;;;24.40;72.50;;;;;;6286429;28;20056;-78
2022/08/29 06:56:52;;;;;;;15.63;2.10;;;25.80;67.10;;;;;;6288869;28;20056;-78
2022/08/29 06:59:55;;;;;;;5.50;1.98;;;27.50;61.30;;;;;;6284492;28;20048;-79
2022/08/29 07:02:57;;;;;;;5.45;2.10;;;28.80;56.80;;;;;;6286626;28;20045;-79
2022/08/29 07:05:59;;;;;;;5.07;1.55;;;29.70;53.50;;;;;;6287112;28;20069;-79
2022/08/29 07:09:00;;;;;;;6.78;1.23;;;30.50;50.80;;;;;;6279422;28;20047;-79
2022/08/29 07:12:04;;;;;;;6.68;1.85;;;30.80;49.50;;;;;;6284335;28;20049;-79
2022/08/29 07:15:08;;;;;;;5.57;1.27;;;30.90;48.40;;;;;;6285970;28;20041;-79
2022/08/29 07:18:10;;;;;;;4.80;1.20;;;31.00;46.70;;;;;;6285382;28;20057;-79
2022/08/29 07:21:14;;;;;;;5.18;1.48;;;30.60;47.40;;;;;;6285497;28;20113;-79
2022/08/29 07:24:16;;;;;;;4.68;1.42;;;30.10;47.40;;;;;;6285032;28;20059;-79
2022/08/29 07:27:18;;;;;;;7.03;1.63;;;29.50;49.00;;;;;;6284338;28;20045;-79
2022/08/29 07:30:21;;;;;;;3.40;1.35;;;29.00;49.00;;;;;;6283314;28;20067;-79
2022/08/29 07:33:23;;;;;;;5.13;1.20;;;28.50;50.30;;;;;;6286074;28;20044;-79
2022/08/29 07:36:25;;;;;;;6.53;1.40;;;28.00;51.50;;;;;;6283767;28;20049;-77
2022/08/29 07:39:27;;;;;;;8.60;1.92;;;27.40;51.90;;;;;;6285558;28;20045;-78
2022/08/29 07:42:28;;;;;;;6.25;1.30;;;26.60;53.50;;;;;;6285546;28;20051;-78
2022/08/29 07:45:31;;;;;;;5.63;1.33;;;25.80;55.80;;;;;;6287352;28;20064;-78
2022/08/29 07:48:33;;;;;;;5.57;1.42;;;25.40;57.60;;;;;;6287399;28;20048;-78
2022/08/29 07:51:36;;;;;;;5.45;1.77;;;25.10;58.60;;;;;;6284744;28;20055;-78
2022/08/29 07:54:38;;;;;;;4.25;1.75;;;25.30;59.30;;;;;;6283489;28;20048;-79
2022/08/29 07:57:39;;;;;;;4.38;1.50;;;26.30;57.60;;;;;;6284705;28;20384;-79
2022/08/29 08:00:42;;;;;;;7.03;1.30;;;27.60;54.00;;;;;;6283388;28;20056;-78
2022/08/29 08:03:44;;;;;;;9.50;1.50;;;28.50;52.60;;;;;;6283444;28;20041;-78
2022/08/29 08:06:46;;;;;;;5.63;1.17;;;29.70;50.80;;;;;;6284470;28;20045;-79
2022/08/29 08:09:48;;;;;;;5.15;1.60;;;30.00;48.90;;;;;;6281218;28;20045;-78
2022/08/29 08:12:50;;;;;;;5.97;1.42;;;29.70;49.00;;;;;;6260671;28;20048;-78
2022/08/29 08:15:54;;;;;;;6.38;2.28;;;29.80;48.90;;;;;;6260194;28;20045;-79
2022/08/29 08:18:57;;;;;;;6.75;1.60;;;30.00;48.20;;;;;;6260642;28;20105;-78
2022/08/29 08:21:58;;;;;;;5.95;1.33;;;30.30;47.90;;;;;;6271807;28;20048;-78
2022/08/29 08:25:01;;;;;;;6.30;1.40;;;30.80;47.20;;;;;;6283540;28;20144;-79
2022/08/29 08:28:03;;;;;;;9.43;2.45;;;30.80;46.50;;;;;;6283151;28;20055;-79
2022/08/29 08:31:07;;;;;;;5.57;1.70;;;30.70;47.20;;;;;;6282652;28;20417;-79
2022/08/29 08:34:10;;;;;;;5.30;1.95;;;31.50;46.10;;;;;;6284595;28;20053;-81
2022/08/29 08:37:12;;;;;;;7.93;1.45;;;32.50;45.30;;;;;;6268177;28;20056;-79
2022/08/29 08:40:19;;;;;;;5.70;2.08;;;33.30;43.60;;;;;;6275127;28;20071;-79
2022/08/29 08:43:27;;;;;;;5.38;1.90;;;33.90;42.00;;;;;;6276139;28;20045;-79
2022/08/29 08:46:36;;;;;;;10.02;1.50;;;33.70;41.60;;;;;;6275858;28;20045;-79
2022/08/29 08:49:44;;;;;;;7.30;1.40;;;33.20;42.10;;;;;;6275839;28;20044;-79
2022/08/29 08:52:50;;;;;;;5.93;1.65;;;32.50;42.90;;;;;;6276961;28;20140;-79
2022/08/29 08:55:54;;;;;;;3.83;1.52;;;32.00;43.80;;;;;;6276355;28;20138;-79
2022/08/29 08:59:04;;;;;;;5.13;2.05;;;31.80;44.30;;;;;;6277692;28;20041;-78
2022/08/29 09:02:19;;;;;;;4.90;1.77;;;31.60;44.50;;;;;;6278558;28;20060;-79
2022/08/29 09:05:34;;;;;;;9.07;1.70;;;31.20;44.90;;;;;;6278228;28;20418;-79
2022/08/29 09:08:47;;;;;;;6.43;1.48;;;31.20;45.20;;;;;;6277428;28;20052;-79
2022/08/29 09:12:00;;;;;;;5.55;1.38;;;30.80;45.90;;;;;;6277440;28;20044;-79
2022/08/29 09:15:08;;;;;;;5.40;1.50;;;30.90;46.00;;;;;;6277620;28;20037;-79
2022/08/29 09:18:20;;;;;;;7.78;1.88;;;31.10;45.80;;;;;;6276715;28;20053;-79
2022/08/29 09:21:23;;;;;;;3.58;1.10;;;31.20;45.70;;;;;;6277367;28;20048;-79
2022/08/29 09:24:31;;;;;;;4.03;1.40;;;31.20;45.80;;;;;;6276489;28;20434;-79
2022/08/29 09:27:35;;;;;;;5.53;1.80;;;31.30;46.30;;;;;;6276311;28;20044;-79
2022/08/29 09:30:40;;;;;;;3.58;1.70;;;31.50;46.00;;;;;;6276220;28;20044;-79
2022/08/29 09:33:47;;;;;;;4.78;1.48;;;31.60;45.20;;;;;;6276999;28;20159;-79
2022/08/29 09:36:51;;;;;;;5.93;1.53;;;31.60;45.40;;;;;;6277201;28;20414;-79
2022/08/29 09:39:58;;;;;;;9.20;1.10;;;31.70;45.10;;;;;;6276292;28;20056;-79
2022/08/29 09:43:02;;;;;;;6.07;1.17;;;32.10;45.30;;;;;;6276987;28;20461;-79
2022/08/29 09:46:17;;;;;;;6.07;1.85;;;32.30;44.20;;;;;;6275686;28;20049;-79
2022/08/29 09:49:20;;;;;;;7.93;1.83;;;32.50;43.80;;;;;;6276247;28;20048;-79
2022/08/29 09:52:25;;;;;;;5.97;2.10;;;32.70;43.80;;;;;;6275305;28;20053;-79
2022/08/29 09:55:33;;;;;;;4.20;1.38;;;32.60;43.70;;;;;;6275522;28;20045;-79
2022/08/29 09:58:38;;;;;;;3.97;1.67;;;32.30;44.30;;;;;;6275593;28;20041;-79
2022/08/29 10:01:40;;;;;;;3.25;1.33;;;31.90;44.90;;;;;;6276265;28;20041;-78
2022/08/29 10:04:45;;;;;;;3.65;1.55;;;31.40;46.10;;;;;;6274864;28;20049;-79
2022/08/29 10:07:48;;;;;;;3.38;1.40;;;31.10;46.80;;;;;;6274209;28;20057;-78
2022/08/29 10:10:53;;;;;;;6.13;1.90;;;31.00;46.60;;;;;;6275037;28;20037;-78
2022/08/29 10:13:57;;;;;;;5.97;2.25;;;31.00;46.90;;;;;;6275538;28;20056;-79
2022/08/29 10:18:19;;;;;;;8.55;2.42;;;31.00;47.00;;;;;;6274467;28;20041;-79
2022/08/29 10:20:32;;;;;;;4.80;1.88;;;31.00;46.90;;;;;;6273603;28;20041;-79
2022/08/29 10:23:42;;;;;;;5.47;1.83;;;30.60;47.60;;;;;;6274235;28;20072;-78
2022/08/29 10:26:51;;;;;;;7.20;1.95;;;30.60;48.00;;;;;;6275570;28;20053;-78
2022/08/29 10:30:05;;;;;;;4.28;1.65;;;30.30;48.00;;;;;;6274881;28;20049;-78
2022/08/29 10:33:18;;;;;;;6.65;1.80;;;30.20;48.30;;;;;;6275663;28;20049;-79
2022/08/29 10:36:29;;;;;;;3.47;1.60;;;30.50;48.40;;;;;;6274567;28;20422;-78
2022/08/29 10:39:38;;;;;;;5.47;2.08;;;30.50;48.60;;;;;;6274781;28;20119;-78
2022/08/29 10:42:42;;;;;;;6.47;1.90;;;30.70;47.70;;;;;;6274779;28;20055;-78
2022/08/29 10:45:58;;;;;;;7.30;1.80;;;30.40;48.30;;;;;;6274848;28;20059;-78
2022/08/29 10:49:07;;;;;;;8.07;1.85;;;30.40;47.90;;;;;;6274038;28;20049;-79
2022/08/29 10:52:19;;;;;;;3.70;1.40;;;30.00;48.80;;;;;;6274386;28;20060;-78
2022/08/29 10:55:35;;;;;;;5.38;1.67;;;29.90;49.10;;;;;;6274609;28;20045;-79
2022/08/29 10:58:49;;;;;;;7.72;1.50;;;30.10;49.40;;;;;;6274672;28;20045;-78
2022/08/29 11:01:57;;;;;;;3.90;1.35;;;30.20;48.30;;;;;;6274820;28;20491;-79
2022/08/29 11:05:03;;;;;;;3.67;1.75;;;30.40;47.70;;;;;;6273799;28;20045;-78
2022/08/29 11:08:12;;;;;;;5.53;1.60;;;30.60;47.20;;;;;;6274081;28;20040;-79
2022/08/29 11:11:19;;;;;;;8.32;2.67;;;30.50;47.70;;;;;;6274475;28;20045;-79
2022/08/29 11:14:28;;;;;;;6.22;1.60;;;30.40;47.70;;;;;;6273593;28;20071;-78
2022/08/29 11:17:37;;;;;;;4.70;1.50;;;30.80;47.80;;;;;;6274841;28;20057;-78
2022/08/29 11:20:43;;;;;;;12.07;2.92;;;30.80;47.10;;;;;;6268502;28;20048;-79
2022/08/29 11:23:48;;;;;;;6.47;1.65;;;30.80;47.30;;;;;;6270046;28;20057;-78
2022/08/29 11:27:02;;;;;;;7.88;2.17;;;30.90;46.90;;;;;;6275902;28;20501;-79
2022/08/29 11:30:07;;;;;;;5.30;1.58;;;31.10;47.10;;;;;;6269681;28;20040;-79
2022/08/29 11:33:20;;;;;;;5.60;1.73;;;31.50;47.00;;;;;;6276718;28;20407;-79
2022/08/29 11:36:35;;;;;;;3.42;1.60;;;31.90;45.90;;;;;;6276275;28;20052;-79
2022/08/29 11:39:52;;;;;;;6.43;1.60;;;31.80;45.80;;;;;;6280938;22;20490;-78
2022/08/29 11:42:56;;;;;;;4.88;1.88;;;31.50;46.40;;;;;;6275983;28;20384;-79
2022/08/29 11:46:01;;;;;;;3.72;1.63;;;31.50;45.90;;;;;;6276871;28;20074;-78
2022/08/29 11:49:37;;;;;;;3.78;1.45;;;31.50;46.90;;;;;;6276380;28;20049;-79
2022/08/29 11:52:50;;;;;;;5.47;1.48;;;31.50;46.30;;;;;;6300454;28;20429;-79
2022/08/29 11:56:25;;;;;;;4.80;1.63;;;31.90;45.70;;;;;;6285316;28;20045;-78
2022/08/29 11:59:55;;;;;;;4.50;2.03;;;31.80;45.10;;;;;;6300793;28;20051;-79
2022/08/29 12:02:57;;;;;;;3.88;1.90;;;31.90;44.90;;;;;;6300764;28;20055;-79
2022/08/29 12:06:02;;;;;;;5.88;1.45;;;32.00;44.60;;;;;;6300315;28;20067;-78
2022/08/29 12:09:39;;;;;;;5.93;1.77;;;32.30;44.00;;;;;;6299226;28;20048;-78
2022/08/29 12:12:48;;;;;;;5.75;1.70;;;32.30;43.10;;;;;;6296898;28;20040;-78
2022/08/29 12:15:54;;;;;;;2.35;1.25;;;31.70;44.50;;;;;;6300117;28;20040;-78
2022/08/29 12:18:56;;;;;;;3.92;1.63;;;31.80;44.40;;;;;;6302045;28;20040;-78
2022/08/29 12:21:59;;;;;;;5.38;1.70;;;32.00;43.90;;;;;;6289468;28;20052;-78
2022/08/29 12:25:37;;;;;;;3.35;1.60;;;31.80;43.70;;;;;;6299386;28;20044;-79
2022/08/29 12:28:47;;;;;;;5.97;1.83;;;31.80;44.00;;;;;;6295215;28;20539;-78
2022/08/29 12:32:14;;;;;;;2.20;1.42;;;31.90;44.50;;;;;;6299340;28;20049;-78
2022/08/29 12:35:27;;;;;;;3.63;1.88;;;32.00;43.30;;;;;;6299699;28;20342;-79
2022/08/29 12:38:39;;;;;;;2.97;1.20;;;32.20;43.40;;;;;;6299321;28;20041;-78
2022/08/29 12:42:00;;;;;;;6.85;1.52;;;32.20;43.30;;;;;;6298723;28;20041;-80
2022/08/29 12:45:10;;;;;;;4.45;1.60;;;32.10;43.70;;;;;;6299999;28;20041;-79
2022/08/29 12:48:17;;;;;;;4.63;1.77;;;32.40;42.90;;;;;;6299328;28;20049;-80
2022/08/29 12:51:32;;;;;;;6.93;1.67;;;32.90;42.00;;;;;;6299301;28;20088;-80
2022/08/29 12:54:38;;;;;;;6.80;2.15;;;33.00;41.80;;;;;;6298896;28;20575;-81
2022/08/29 12:57:44;;;;;;;2.55;1.33;;;32.70;42.10;;;;;;6299782;28;20048;-80
2022/08/29 13:00:51;;;;;;;2.75;1.30;;;32.80;41.60;;;;;;6299206;28;20041;-80
2022/08/29 13:04:02;;;;;;;4.55;1.80;;;32.80;41.90;;;;;;6299084;28;20056;-80
2022/08/29 13:07:07;;;;;;;3.65;1.98;;;33.10;41.30;;;;;;6298875;28;20525;-78
2022/08/29 13:10:18;;;;;;;2.47;1.40;;;33.00;41.20;;;;;;6297724;28;20057;-78
2022/08/29 13:13:23;;;;;;;3.67;1.35;;;32.90;41.10;;;;;;6299276;28;20058;-80
2022/08/29 13:16:29;;;;;;;1.70;1.10;;;33.00;41.70;;;;;;6298662;28;20041;-78
2022/08/29 13:19:31;;;;;;;2.30;1.63;;;33.20;41.30;;;;;;6298859;28;20051;-79
2022/08/29 13:22:32;;;;;;;6.72;1.73;;;33.70;40.70;;;;;;6291684;28;20040;-79
2022/08/29 13:25:36;;;;;;;3.90;1.63;;;33.70;41.20;;;;;;6299351;28;20490;-79
2022/08/29 13:28:41;;;;;;;2.65;1.65;;;33.90;40.10;;;;;;6299170;28;20041;-80
2022/08/29 13:32:05;;;;;;;6.43;1.90;;;33.70;40.30;;;;;;6300672;28;20498;-80
2022/08/29 13:35:18;;;;;;;2.58;1.30;;;33.70;41.00;;;;;;6290626;28;20073;-80
2022/08/29 13:38:23;;;;;;;4.07;1.67;;;34.20;40.30;;;;;;6277478;28;20056;-81
2022/08/29 13:41:27;;;;;;;2.35;1.20;;;34.30;39.80;;;;;;6289382;28;20123;-79
2022/08/29 13:44:32;;;;;;;3.42;1.58;;;34.30;39.70;;;;;;6298710;28;20048;-80
2022/08/29 13:47:51;;;;;;;6.15;1.23;;;34.10;39.70;;;;;;6298989;28;20044;-80
2022/08/29 13:50:53;;;;;;;3.80;1.80;;;34.10;39.60;;;;;;6299508;28;20044;-79
2022/08/29 13:53:55;;;;;;;5.63;1.73;;;34.20;40.10;;;;;;6294170;28;20044;-80
2022/08/29 13:56:58;;;;;;;2.70;1.40;;;34.40;39.60;;;;;;6299760;28;20059;-80
2022/08/29 14:00:01;;;;;;;2.95;1.30;;;34.30;39.40;;;;;;6298634;28;20059;-78
2022/08/29 14:03:06;;;;;;;4.15;1.92;;;33.90;39.60;;;;;;6298777;28;20041;-79
2022/08/29 14:06:12;;;;;;;7.13;1.63;;;33.50;39.80;;;;;;6299097;28;20052;-80
2022/08/29 14:09:19;;;;;;;2.70;1.48;;;33.40;40.50;;;;;;6299165;28;20059;-79
2022/08/29 14:12:21;;;;;;;4.03;1.27;;;33.40;40.60;;;;;;6298726;28;20040;-79
2022/08/29 14:15:22;;;;;;;5.15;1.85;;;33.50;40.20;;;;;;6299233;28;20502;-79
2022/08/29 14:18:25;;;;;;;2.88;1.67;;;33.50;40.40;;;;;;6298480;28;20048;-79
2022/08/29 14:21:27;;;;;;;3.17;1.38;;;33.70;41.00;;;;;;6299158;28;20049;-79
2022/08/29 14:24:30;;;;;;;2.50;1.60;;;33.80;40.20;;;;;;6297078;28;20055;-79
2022/08/29 14:27:32;;;;;;;3.72;1.25;;;33.70;40.20;;;;;;6297424;28;20051;-79
2022/08/29 14:30:34;;;;;;;4.18;1.33;;;33.50;40.00;;;;;;6297964;28;20055;-79
2022/08/29 14:33:37;;;;;;;3.35;1.52;;;33.20;40.10;;;;;;6298457;28;20052;-78
2022/08/29 14:39:47;;;;;;;4.30;1.90;;;33.00;40.80;;;;;;6272239;28;20084;-81
2022/08/29 14:42:49;;;;;;;5.63;1.58;;;32.80;40.70;;;;;;6274003;28;20045;-80
2022/08/29 14:45:51;;;;;;;4.82;1.55;;;32.80;40.90;;;;;;6275520;28;20545;-81
2022/08/29 14:48:54;;;;;;;4.28;1.70;;;33.00;41.10;;;;;;6273449;28;20045;-81
2022/08/29 14:51:56;;;;;;;5.35;1.60;;;33.20;40.50;;;;;;6274518;28;20045;-80
2022/08/29 14:54:58;;;;;;;6.53;1.55;;;33.30;40.30;;;;;;6274874;28;20414;-80
2022/08/29 14:57:59;;;;;;;4.93;1.85;;;33.10;40.70;;;;;;6274382;28;20053;-80
2022/08/29 15:01:01;;;;;;;4.22;2.20;;;33.10;40.80;;;;;;6274259;28;20037;-80
2022/08/29 15:04:05;;;;;;;14.57;1.92;;;32.90;40.90;;;;;;6272497;28;20413;-78
2022/08/29 15:07:08;;;;;;;2.78;1.50;;;32.70;41.00;;;;;;6279698;28;20051;-79
2022/08/29 15:10:11;;;;;;;3.58;1.45;;;32.70;41.40;;;;;;6276033;28;20053;-80
2022/08/29 15:13:13;;;;;;;15.07;2.55;;;33.00;40.80;;;;;;6275956;28;20545;-79
2022/08/29 15:16:14;;;;;;;6.78;1.60;;;32.90;40.50;;;;;;6275538;28;20056;-79
2022/08/29 15:19:17;;;;;;;4.72;1.92;;;32.70;40.50;;;;;;6269129;28;20060;-80
2022/08/29 15:22:20;;;;;;;2.70;1.70;;;32.50;40.80;;;;;;6252505;28;20045;-78
2022/08/29 15:25:22;;;;;;;5.68;1.40;;;32.30;41.20;;;;;;6273343;28;20049;-79
2022/08/29 15:28:23;;;;;;;2.60;1.45;;;32.40;41.20;;;;;;6250969;28;20053;-80
2022/08/29 15:31:25;;;;;;;3.63;2.00;;;32.50;40.70;;;;;;6250081;28;20041;-79
2022/08/29 15:34:29;;;;;;;4.22;1.88;;;32.50;41.10;;;;;;6254861;28;20056;-79
2022/08/29 15:37:31;;;;;;;2.53;1.52;;;32.50;41.30;;;;;;6274814;28;20059;-79
2022/08/29 15:40:34;;;;;;;3.50;2.00;;;32.40;41.40;;;;;;6274500;28;20107;-79
2022/08/29 15:43:35;;;;;;;8.85;1.55;;;32.40;41.30;;;;;;6273483;28;20051;-79
2022/08/29 15:46:37;;;;;;;2.53;1.58;;;32.40;41.10;;;;;;6255826;28;20048;-79
2022/08/29 15:49:40;;;;;;;4.53;1.75;;;32.10;41.50;;;;;;6273791;28;20052;-80
2022/08/29 15:52:42;;;;;;;8.30;2.13;;;31.80;41.90;;;;;;6272965;28;20419;-79
2022/08/29 15:55:44;;;;;;;2.65;1.77;;;31.60;42.10;;;;;;6273585;28;20040;-80
2022/08/29 15:58:47;;;;;;;4.25;1.95;;;31.30;42.40;;;;;;6273114;28;20410;-78
2022/08/29 16:01:54;;;;;;;3.75;1.73;;;31.10;42.60;;;;;;6273920;28;20126;-78
2022/08/29 16:04:58;;;;;;;5.15;1.83;;;30.80;43.40;;;;;;6272918;28;20047;-79